x

Buoy I01 - Eastern Maine Shelf (44034) Wave Buoy

7:04am - Mon 6th Jul 2015 All times are EDT. -4 hours from GMT.

  • Sig Wave height 3.0ft
  • Peak Period 8s
  • Wind
    4mph
  • Sea Temp 49°f
  • 空気 Temp 56°f
  • Sea Pressure 1020mb
  • Buoy I01 - Eastern Maine Shelf
  • Buoy I01 - Eastern Maine Shelf

More Historic Weather Station data

Upgrade to MSW Pro to gain access to the past 30 days of data for over 8000 Wavebouys and Weather Stations around the globe.

Join Pro

Comparision Forecast

View Surf forecast
   
Mon 07/06 7:04am 3ft 8s 4
mph
1020mb 49f 56f
6:04am 2.5ft 11s 2 4 mph 1019.7mb 50f 54f
5:04am 2.5ft 8s 7 9 mph 1018.9mb 50f 55f
4:04am 2.5ft 8s 4
mph
1018.6mb 50f 53f
3:04am 3ft 8s 4 7 mph 1018.3mb 50f 53f
2:04am 3ft 8s 7
mph
1017.9mb 50f 54f
1:04am 3.5ft 8s 7 9 mph 1018.2mb 51f 54f
12:04am 4ft 8s 4 7 mph 1018.2mb 51f 54f
Sun 07/05 11:04pm 3.5ft 11s 4 7 mph 1018.1mb 51f 54f
10:04pm 4ft 8s 7 9 mph 1017.8mb 51f 54f
9:04pm 3ft 8s 11 13 mph 1017.2mb 51f 55f
8:04pm 3.5ft 8s 11
mph
1016.8mb 51f 55f
7:04pm 3ft 8s 13
mph
1016.3mb 52f 55f
6:04pm 3.5ft 11s 9 11 mph 1015.8mb 51f 56f
5:04pm 2.5ft 8s 9 11 mph 1015.8mb 50f 56f
4:04pm 2.5ft 8s 9 11 mph 1015.7mb 50f 56f
3:04pm 2.5ft 8s 11 13 mph 1015.3mb 51f 55f
2:04pm 2.5ft 8s 11 13 mph 1015.5mb 51f 55f
1:04pm 2ft 8s 9 11 mph 1015.7mb 51f 55f
12:04pm 3ft 8s 9 11 mph 1015.5mb 51f 53f
11:04am 2.5ft 8s 9 11 mph 1015.7mb 51f 53f
10:04am 2ft 8s 9
mph
1015.9mb 50f 52f
9:04am 2ft 8s 9
mph
1016mb 49f 52f
8:04am 2.5ft 8s 7 9 mph 1015.6mb 49f 52f
7:04am 2.5ft 8s 4 7 mph 1015mb 49f 52f
6:04am 2.5ft 8s 9
mph
1014.7mb 49f 52f
5:04am 3ft 11s 4 7 mph 1014.3mb 49f 51f
4:04am 2.5ft 8s 4
mph
1013.8mb 49f 51f
3:04am 2.5ft 8s 4
mph
1013.9mb 49f 50f
2:04am 3ft 8s 4 7 mph 1013.9mb 49f 51f
1:04am 3.5ft 8s 2 4 mph 1013.8mb 50f 51f
12:04am 3ft 8s 4 7 mph 1014.1mb 50f 52f
Sat 07/04 11:04pm 3.5ft 8s 4 7 mph 1014.3mb 50f 52f
10:04pm 4ft 8s 4
mph
1014.2mb 50f 52f
9:04pm 4ft 8s 4 9 mph 1014.5mb 49f 56f
8:04pm 3.5ft 8s 2 4 mph 1014.3mb 49f 51f
7:04pm 4.5ft 8s 2
mph
1014.7mb 50f 52f
6:04pm 3.5ft 8s 4 7 mph 1015mb 51f 53f
5:04pm 3ft 11s 7
mph
1015.2mb 51f 54f
4:04pm 3.5ft 8s 7 9 mph 1015.4mb 50f 53f
3:04pm 3.5ft 11s 7 11 mph 1015.5mb 50f 54f
2:04pm 3.5ft 11s 4 7 mph 1015.5mb 51f 54f
1:04pm 3.5ft 11s 4 7 mph 1015.7mb 50f 54f
12:04pm 3.5ft 8s 4
mph
1015.7mb 50f 54f
11:04am 3.5ft 8s 7 9 mph 1016.2mb 50f 53f
10:04am 3.5ft 11s 4 7 mph 1016.1mb 49f 52f
9:04am 3.5ft 8s 2 4 mph 1016.2mb 49f 53f
8:04am 3.5ft 11s 2
mph
1015.9mb 49f 53f
7:04am 3.5ft 8s  -  2 mph 1016mb 49f 53f
6:04am 3.5ft 11s 2
mph
1015.9mb 49f 51f
5:04am 3.5ft 11s 4
mph
1015.7mb 48f 50f
4:04am 3.5ft 8s 4 7 mph 1015.3mb 48f 51f
3:04am 3ft 8s 4 7 mph 1015.2mb 48f 51f
2:04am 3.5ft 8s 7
mph
1014.7mb 47f 51f
1:04am 3.5ft 8s 9 11 mph 1014.6mb 48f 52f
12:04am 3.5ft 8s 7 9 mph 1014.6mb 48f 51f
Fri 07/03 11:04pm 3.5ft 11s 4
mph
1014.2mb 48f 52f
10:04pm 4.5ft 8s 11 13 mph 1014.1mb 48f 53f
9:04pm 3.5ft 8s 13 16 mph 1013.7mb 48f 53f
8:04pm 4.5ft 11s 11 13 mph 1013mb 48f 53f
7:04pm 3ft 8s 16 20 mph 1012.9mb 49f 55f
6:04pm 3ft 8s 11 13 mph 1012.3mb 49f 54f
5:04pm 3.5ft 11s 16
mph
1012.1mb 49f 55f
4:04pm 3.5ft 11s 13 16 mph 1011.9mb 50f 56f
3:04pm 3.5ft 8s 13
mph
1012mb 50f 55f
2:04pm 3.5ft 8s 9 11 mph 1011.9mb 50f 55f
1:04pm 3.5ft 8s 13
mph
1011.6mb 50f 56f
12:04pm 3.5ft 8s 7 9 mph 1011.7mb 50f 54f
11:04am 3.5ft 6s 9
mph
1012mb 50f 56f
10:04am 4ft 8s 7
mph
1012.1mb 49f 54f
9:04am 4ft 8s 4 7 mph 1012.1mb 49f 53f
8:04am 4.5ft 8s 2 4 mph 1012.1mb 48f 53f
7:04am 3.5ft 8s 2 4 mph 1011.9mb 48f 53f
6:04am 3.5ft 8s 4
mph
1011.8mb 48f 52f
5:04am 3.5ft 8s 4
mph
1011.4mb 48f 53f
4:04am 3.5ft 8s 2
mph
1011.7mb 49f 52f
3:04am 3.5ft 11s 7
mph
1011mb 49f 52f
2:04am 3.5ft 8s 7
mph
1010.8mb 50f 53f
1:04am 4ft 8s 7
mph
1010.9mb 50f 52f
12:04am 4ft 8s 7 9 mph 1011.2mb 50f 53f
Thu 07/02 11:04pm 4ft 8s 7 9 mph 1011.1mb 50f 53f
10:04pm 4.5ft 8s 9 11 mph 1011.4mb 50f 54f
9:04pm 4ft 8s 7 9 mph 1011.4mb 50f 53f
8:04pm 4.5ft 8s 7 9 mph 1010.6mb 50f 53f
7:04pm 5ft 8s 13 16 mph 1010.1mb 50f 55f
6:04pm 4.5ft 8s 13
mph
1009.8mb 50f 54f
5:04pm 4.5ft 8s 11 13 mph 1010.1mb 50f 55f
4:04pm 4ft 8s 11
mph
1010.1mb 50f 54f
3:04pm 4.5ft 8s 11 13 mph 1009.8mb 50f 54f
2:04pm 4.5ft 8s 11 13 mph 1009.9mb 50f 53f
1:04pm 4.5ft 11s 9 11 mph 1009.9mb 50f 52f